Time;durP1;ratioP1;P1;durP2;ratioP2;P2;SDS_P1;SDS_P2;PMS_P1;PMS_P2;Temp;Humidity;BMP_temperature;BMP_pressure;BME280_temperature;BME280_humidity;BME280_pressure;Samples;Min_cycle;Max_cycle;Signal;HPM_P1;HPM_P2
2023/09/30 00:04:13;;;;;;;3.80;1.30;;;21.90;99.90;;;;;;10052299;28;20230;-67
2023/09/30 00:09:05;;;;;;;2.67;1.17;;;21.90;99.90;;;;;;10052621;28;20037;-69
2023/09/30 00:13:55;;;;;;;2.25;1.30;;;21.90;99.90;;;;;;10058188;28;20037;-68
2023/09/30 00:18:47;;;;;;;3.78;1.73;;;21.90;99.90;;;;;;10056413;28;20051;-69
2023/09/30 00:23:38;;;;;;;3.63;1.10;;;21.90;99.90;;;;;;10056455;28;20029;-69
2023/09/30 00:28:29;;;;;;;1.80;1.10;;;21.80;99.90;;;;;;10056633;28;20136;-68
2023/09/30 00:33:19;;;;;;;2.50;1.15;;;21.80;99.90;;;;;;10063167;28;20029;-67
2023/09/30 00:38:10;;;;;;;2.67;1.08;;;21.70;99.90;;;;;;10056197;28;20049;-70
2023/09/30 00:43:04;;;;;;;6.18;1.05;;;21.60;99.90;;;;;;10056461;28;20372;-70
2023/09/30 00:47:58;;;;;;;5.83;1.80;;;21.60;99.90;;;;;;10050830;28;20025;-69
2023/09/30 00:52:50;;;;;;;1.90;0.87;;;21.70;99.90;;;;;;10054076;28;20426;-69
2023/09/30 00:57:41;;;;;;;3.90;1.38;;;21.60;99.90;;;;;;10043667;28;20045;-67
2023/09/30 01:02:32;;;;;;;2.83;2.25;;;21.60;99.90;;;;;;10035158;28;20029;-68
2023/09/30 01:07:22;;;;;;;2.67;1.48;;;21.60;99.90;;;;;;10037149;28;20040;-67
2023/09/30 01:12:13;;;;;;;3.00;1.10;;;21.50;99.90;;;;;;10051109;28;20546;-69
2023/09/30 01:17:04;;;;;;;3.58;1.52;;;21.50;99.90;;;;;;10049196;28;20045;-68
2023/09/30 01:21:58;;;;;;;1.92;1.40;;;21.50;99.90;;;;;;10046463;28;20120;-68
2023/09/30 01:26:50;;;;;;;3.72;1.33;;;21.40;99.90;;;;;;10040694;28;20049;-70
2023/09/30 01:31:40;;;;;;;3.35;1.27;;;21.40;99.90;;;;;;10062936;28;20033;-68
2023/09/30 01:36:31;;;;;;;3.03;1.58;;;21.40;99.90;;;;;;10063334;28;20036;-67
2023/09/30 01:41:23;;;;;;;3.10;1.45;;;21.30;99.90;;;;;;10054791;28;20083;-71
2023/09/30 01:46:13;;;;;;;2.55;1.30;;;21.40;99.90;;;;;;10053638;28;20025;-71
2023/09/30 01:51:04;;;;;;;2.38;1.15;;;21.50;99.90;;;;;;10047325;28;20376;-71
2023/09/30 01:55:55;;;;;;;3.13;1.13;;;21.50;99.90;;;;;;10037683;28;20033;-75
2023/09/30 02:00:45;;;;;;;3.20;1.45;;;21.40;99.90;;;;;;10042557;28;20049;-67
2023/09/30 02:05:36;;;;;;;3.63;1.30;;;21.30;99.90;;;;;;10041584;28;20065;-72
2023/09/30 02:10:27;;;;;;;2.03;1.30;;;21.20;99.90;;;;;;10059099;28;20087;-68
2023/09/30 02:15:18;;;;;;;3.35;1.80;;;21.30;99.90;;;;;;10057621;28;20017;-68
2023/09/30 02:20:15;;;;;;;3.45;1.70;;;21.30;99.90;;;;;;10059478;28;20052;-70
2023/09/30 02:25:07;;;;;;;4.40;1.63;;;21.20;99.90;;;;;;10045714;28;20030;-73
2023/09/30 02:29:58;;;;;;;2.92;1.27;;;21.20;99.90;;;;;;10060635;28;20426;-68
2023/09/30 02:34:50;;;;;;;2.33;1.08;;;21.30;99.90;;;;;;10069140;28;20029;-69
2023/09/30 02:39:40;;;;;;;2.65;1.15;;;21.30;99.90;;;;;;10056974;28;20134;-70
2023/09/30 02:44:31;;;;;;;2.83;1.20;;;21.20;99.90;;;;;;10059172;28;20111;-70
2023/09/30 02:49:22;;;;;;;3.70;1.27;;;21.10;99.90;;;;;;10060055;28;20299;-68
2023/09/30 02:54:15;;;;;;;3.08;1.30;;;21.10;99.90;;;;;;10058834;28;20026;-66
2023/09/30 02:59:07;;;;;;;1.63;1.20;;;21.20;99.90;;;;;;10065946;28;20044;-68
2023/09/30 03:03:57;;;;;;;3.67;1.27;;;21.10;99.90;;;;;;10059713;28;20051;-67
2023/09/30 03:08:48;;;;;;;2.72;1.52;;;21.10;99.90;;;;;;10056236;28;20593;-69
2023/09/30 03:13:42;;;;;;;2.65;1.20;;;21.10;99.90;;;;;;10059773;28;20513;-67
2023/09/30 03:18:32;;;;;;;6.43;1.23;;;21.10;99.90;;;;;;10060391;28;20095;-67
2023/09/30 03:23:28;;;;;;;2.92;1.33;;;21.00;99.90;;;;;;10056597;28;20021;-68
2023/09/30 03:28:19;;;;;;;3.55;1.38;;;20.90;99.90;;;;;;10057632;28;20068;-67
2023/09/30 03:33:10;;;;;;;2.58;1.20;;;21.00;99.90;;;;;;10057795;28;20071;-70
2023/09/30 03:38:02;;;;;;;4.30;1.58;;;20.90;99.90;;;;;;10044802;28;20390;-73
2023/09/30 03:42:53;;;;;;;2.58;1.30;;;20.90;99.90;;;;;;10056158;28;20133;-69
2023/09/30 03:47:43;;;;;;;3.63;2.10;;;20.90;99.90;;;;;;10072592;28;20112;-76
2023/09/30 03:52:34;;;;;;;2.55;1.08;;;21.00;99.90;;;;;;10062183;28;20163;-83
2023/09/30 03:57:25;;;;;;;3.60;1.38;;;21.00;99.90;;;;;;10058887;28;20106;-72
2023/09/30 04:02:16;;;;;;;4.38;2.50;;;20.90;99.90;;;;;;10055529;28;20086;-68
2023/09/30 04:07:09;;;;;;;2.40;1.48;;;21.00;99.90;;;;;;10054790;28;20503;-70
2023/09/30 04:12:01;;;;;;;2.17;1.20;;;21.00;99.90;;;;;;10064196;28;20018;-70
2023/09/30 04:16:53;;;;;;;2.80;1.48;;;21.00;99.90;;;;;;10062491;28;20021;-69
2023/09/30 04:21:44;;;;;;;4.53;1.45;;;21.00;99.90;;;;;;10049859;28;20037;-69
2023/09/30 04:26:35;;;;;;;4.93;1.90;;;20.80;99.90;;;;;;10057319;28;20034;-67
2023/09/30 04:31:25;;;;;;;2.90;1.40;;;20.70;99.90;;;;;;10063962;28;20041;-69
2023/09/30 04:36:16;;;;;;;2.65;1.48;;;20.60;99.90;;;;;;10057410;28;20430;-68
2023/09/30 04:41:07;;;;;;;3.60;1.67;;;20.60;99.90;;;;;;10056106;28;20033;-67
2023/09/30 04:45:58;;;;;;;2.85;1.27;;;20.60;99.90;;;;;;10057165;28;20026;-70
2023/09/30 04:50:49;;;;;;;4.60;2.05;;;20.70;99.90;;;;;;10054792;28;20159;-69
2023/09/30 04:55:39;;;;;;;2.22;1.33;;;20.60;99.90;;;;;;10056359;28;20025;-68
2023/09/30 05:00:30;;;;;;;2.35;1.60;;;20.40;99.90;;;;;;10056940;28;20037;-71
2023/09/30 05:05:21;;;;;;;3.75;1.63;;;20.40;99.90;;;;;;10055317;28;20471;-68
2023/09/30 05:10:13;;;;;;;2.70;1.40;;;20.40;99.90;;;;;;10051755;28;20025;-68
2023/09/30 05:15:06;;;;;;;3.13;1.50;;;20.30;99.90;;;;;;10060247;28;20022;-73
2023/09/30 05:19:57;;;;;;;4.95;2.50;;;20.30;99.90;;;;;;10056258;28;20046;-69
2023/09/30 05:24:48;;;;;;;3.08;1.67;;;20.20;99.90;;;;;;10056378;28;20048;-69
2023/09/30 05:29:38;;;;;;;3.08;1.45;;;20.30;99.90;;;;;;10055602;28;20106;-69
2023/09/30 05:34:29;;;;;;;3.38;1.83;;;20.10;99.90;;;;;;10063651;28;20026;-72
2023/09/30 05:39:20;;;;;;;5.90;2.10;;;20.20;99.90;;;;;;10052629;28;20038;-73
2023/09/30 05:44:11;;;;;;;3.00;1.73;;;20.30;99.90;;;;;;10058340;28;20025;-71
2023/09/30 05:49:02;;;;;;;4.07;1.48;;;20.20;99.90;;;;;;10064498;28;20486;-71
2023/09/30 05:53:54;;;;;;;4.15;1.88;;;20.10;99.90;;;;;;10059653;28;20037;-68
2023/09/30 05:58:45;;;;;;;4.70;2.42;;;20.20;99.90;;;;;;10063282;28;20131;-71
2023/09/30 06:03:39;;;;;;;4.65;1.83;;;20.20;99.90;;;;;;10061625;28;20032;-69
2023/09/30 06:08:30;;;;;;;2.83;1.70;;;20.20;99.90;;;;;;10056596;28;20402;-69
2023/09/30 06:13:21;;;;;;;4.35;2.05;;;20.20;99.90;;;;;;10061861;28;20120;-70
2023/09/30 06:18:13;;;;;;;4.68;1.90;;;20.10;99.90;;;;;;10060662;28;20050;-72
2023/09/30 06:23:04;;;;;;;4.57;2.30;;;20.20;99.90;;;;;;10062145;28;20072;-68
2023/09/30 06:27:54;;;;;;;5.65;2.10;;;20.00;99.90;;;;;;10061091;28;20538;-71
2023/09/30 06:32:45;;;;;;;3.40;1.85;;;20.00;99.90;;;;;;10069382;28;20022;-70
2023/09/30 06:37:40;;;;;;;3.45;2.45;;;20.00;99.90;;;;;;10060334;28;20041;-69
2023/09/30 06:42:31;;;;;;;4.22;2.38;;;20.00;99.90;;;;;;10060525;28;20025;-68
2023/09/30 06:47:21;;;;;;;5.20;2.20;;;19.90;99.90;;;;;;10061463;28;20044;-70
2023/09/30 06:52:13;;;;;;;3.72;2.03;;;20.00;99.90;;;;;;10061142;28;20113;-71
2023/09/30 06:57:04;;;;;;;3.60;2.30;;;20.00;99.90;;;;;;10058775;28;20516;-69
2023/09/30 07:01:54;;;;;;;3.70;2.17;;;20.10;99.90;;;;;;10061521;28;20435;-71
2023/09/30 07:06:45;;;;;;;3.30;1.63;;;19.90;99.90;;;;;;10060727;28;20034;-69
2023/09/30 07:11:36;;;;;;;3.33;1.73;;;19.90;99.90;;;;;;10061653;28;20128;-70
2023/09/30 07:16:27;;;;;;;3.65;2.20;;;20.00;99.90;;;;;;10060229;28;20105;-73
2023/09/30 07:21:18;;;;;;;2.60;2.03;;;19.90;99.90;;;;;;10059580;28;20439;-68
2023/09/30 07:26:08;;;;;;;3.10;1.70;;;20.00;99.90;;;;;;10065266;28;20250;-85
2023/09/30 07:30:59;;;;;;;7.80;1.83;;;19.90;99.90;;;;;;10071236;28;20512;-87
2023/09/30 07:35:50;;;;;;;4.15;2.17;;;20.00;99.90;;;;;;10067292;28;20013;-68
2023/09/30 07:40:41;;;;;;;5.30;2.00;;;20.20;99.90;;;;;;10061719;28;20037;-80
2023/09/30 07:45:32;;;;;;;2.50;1.63;;;20.20;99.90;;;;;;10054551;28;20079;-84
2023/09/30 07:50:23;;;;;;;3.08;2.42;;;20.30;99.90;;;;;;10054124;28;20029;-72
2023/09/30 07:55:13;;;;;;;3.08;2.20;;;20.40;99.90;;;;;;10058464;28;20029;-69
2023/09/30 08:00:09;;;;;;;3.58;1.95;;;20.40;99.90;;;;;;10062336;28;20038;-72
2023/09/30 08:04:59;;;;;;;;;;;20.50;99.90;;;;;;10052436;28;20095;-76
2023/09/30 08:09:50;;;;;;;5.95;1.90;;;20.30;99.90;;;;;;10048318;28;20482;-75
2023/09/30 08:14:44;;;;;;;4.75;2.75;;;20.40;99.90;;;;;;10057428;28;20040;-71
2023/09/30 08:19:34;;;;;;;4.78;2.25;;;20.50;99.90;;;;;;10053103;28;20125;-71
2023/09/30 08:24:25;;;;;;;4.57;1.85;;;20.50;99.90;;;;;;10046104;28;20424;-75
2023/09/30 08:29:15;;;;;;;6.25;2.70;;;20.50;99.90;;;;;;10045585;28;20053;-68
2023/09/30 08:34:06;;;;;;;4.63;2.58;;;20.50;99.90;;;;;;10065527;28;20083;-78
2023/09/30 08:38:57;;;;;;;9.82;2.53;;;20.50;99.90;;;;;;10056625;28;20414;-71
2023/09/30 08:43:48;;;;;;;5.82;2.50;;;20.50;99.90;;;;;;10056525;28;20112;-69
2023/09/30 08:48:39;;;;;;;5.35;2.17;;;20.50;99.90;;;;;;10057150;28;20393;-70
2023/09/30 08:53:30;;;;;;;5.10;2.72;;;20.60;99.90;;;;;;10057764;28;20068;-72
2023/09/30 08:58:26;;;;;;;6.78;2.85;;;20.60;99.90;;;;;;10054305;28;20068;-71
2023/09/30 09:03:19;;;;;;;5.63;2.60;;;20.80;99.90;;;;;;10058277;28;20036;-71
2023/09/30 09:08:09;;;;;;;5.60;2.95;;;20.80;99.90;;;;;;10055268;28;20467;-74
2023/09/30 09:13:00;;;;;;;4.30;2.90;;;20.80;99.90;;;;;;10054659;28;20034;-75
2023/09/30 09:17:52;;;;;;;5.63;3.30;;;20.90;99.90;;;;;;10059919;28;20529;-73
2023/09/30 09:22:44;;;;;;;8.90;2.33;;;20.80;99.90;;;;;;10066356;28;20123;-75
2023/09/30 09:27:35;;;;;;;4.03;1.95;;;20.90;99.90;;;;;;10063015;28;20045;-74
2023/09/30 09:32:26;;;;;;;2.63;1.60;;;20.90;99.90;;;;;;10066371;28;20112;-70
2023/09/30 09:37:19;;;;;;;3.20;2.13;;;21.00;99.90;;;;;;10068901;28;20128;-73
2023/09/30 09:42:10;;;;;;;5.10;2.63;;;21.00;99.90;;;;;;10060895;28;20076;-74
2023/09/30 09:47:05;;;;;;;6.35;2.63;;;21.10;99.90;;;;;;10060898;28;20063;-75
2023/09/30 09:51:57;;;;;;;3.80;2.25;;;21.10;99.90;;;;;;10066237;28;20079;-67
2023/09/30 09:56:49;;;;;;;6.00;2.65;;;21.00;99.90;;;;;;10062336;28;20037;-68
2023/09/30 10:01:42;;;;;;;5.05;2.20;;;21.10;99.90;;;;;;10062198;28;20043;-69
2023/09/30 10:06:38;;;;;;;3.47;2.22;;;21.20;99.90;;;;;;10061449;28;20462;-67
2023/09/30 10:11:29;;;;;;;3.40;2.08;;;21.10;99.90;;;;;;10061030;28;20120;-70
2023/09/30 10:16:38;;;;;;;3.55;1.85;;;21.00;99.90;;;;;;10059417;28;20108;-68
2023/09/30 10:21:29;;;;;;;3.40;2.05;;;21.10;99.90;;;;;;10060660;28;20041;-68
2023/09/30 10:26:20;;;;;;;5.40;2.25;;;21.10;99.90;;;;;;10061775;28;20668;-69
2023/09/30 10:31:16;;;;;;;6.10;2.88;;;21.30;99.90;;;;;;10064768;28;20044;-70
2023/09/30 10:36:08;;;;;;;5.18;1.88;;;21.50;99.90;;;;;;10062256;28;20021;-68
2023/09/30 10:41:02;;;;;;;10.90;2.45;;;21.50;99.90;;;;;;10056096;28;20044;-69
2023/09/30 10:45:53;;;;;;;3.85;2.00;;;21.50;99.90;;;;;;10059835;28;20056;-68
2023/09/30 10:50:50;;;;;;;4.43;1.92;;;21.60;99.90;;;;;;10055778;28;20580;-68
2023/09/30 10:55:42;;;;;;;4.68;2.67;;;21.60;99.90;;;;;;10059137;28;20029;-69
2023/09/30 11:00:33;;;;;;;3.45;2.08;;;21.60;99.90;;;;;;10056787;28;20034;-69
2023/09/30 11:05:23;;;;;;;3.80;2.70;;;21.50;99.90;;;;;;10056655;28;20040;-68
2023/09/30 11:10:18;;;;;;;4.38;1.95;;;21.60;99.90;;;;;;10059504;28;20438;-68
2023/09/30 11:15:09;;;;;;;5.93;2.13;;;21.60;99.90;;;;;;10058682;28;20033;-72
2023/09/30 11:20:00;;;;;;;4.78;2.83;;;21.60;99.90;;;;;;10059093;28;20056;-69
2023/09/30 11:24:51;;;;;;;6.70;2.90;;;21.70;99.90;;;;;;10062685;28;20520;-68
2023/09/30 11:29:51;;;;;;;3.75;2.40;;;21.70;99.90;;;;;;10058621;28;20057;-69
2023/09/30 11:34:44;;;;;;;5.55;2.53;;;21.60;99.90;;;;;;10054897;28;20029;-68
2023/09/30 11:39:35;;;;;;;6.85;2.63;;;21.60;99.90;;;;;;10055934;28;20359;-68
2023/09/30 11:44:26;;;;;;;3.65;2.10;;;21.60;99.90;;;;;;10054956;28;20482;-68
2023/09/30 11:49:40;;;;;;;5.63;2.60;;;21.60;99.90;;;;;;10058739;28;20418;-69
2023/09/30 11:54:32;;;;;;;4.25;2.63;;;21.80;99.90;;;;;;10058675;28;20082;-69
2023/09/30 11:59:22;;;;;;;4.25;2.42;;;21.90;99.90;;;;;;10057098;28;20064;-75
2023/09/30 12:04:13;;;;;;;6.72;2.88;;;21.90;99.90;;;;;;10057808;28;20067;-70
2023/09/30 12:09:04;;;;;;;7.43;2.88;;;22.00;99.90;;;;;;10057789;28;20060;-74
2023/09/30 12:13:54;;;;;;;4.88;2.22;;;22.10;99.90;;;;;;10057141;28;20037;-73
2023/09/30 12:18:45;;;;;;;5.75;2.53;;;22.20;99.90;;;;;;10057100;28;20045;-69
2023/09/30 12:23:36;;;;;;;5.68;2.33;;;22.40;99.90;;;;;;10057494;28;20033;-68
2023/09/30 12:28:29;;;;;;;4.10;2.53;;;22.40;99.90;;;;;;10055822;28;20045;-68
2023/09/30 12:33:20;;;;;;;5.97;2.13;;;22.40;99.90;;;;;;10065524;28;20110;-67
2023/09/30 12:38:10;;;;;;;7.55;3.13;;;22.30;99.90;;;;;;10054437;28;20541;-68
2023/09/30 12:43:01;;;;;;;6.90;3.30;;;22.10;99.90;;;;;;10056214;28;20426;-70
2023/09/30 12:47:54;;;;;;;6.05;2.78;;;22.10;99.90;;;;;;10054058;28;20344;-68
2023/09/30 12:52:44;;;;;;;5.32;2.63;;;22.00;99.90;;;;;;10054812;28;20584;-69
2023/09/30 12:57:35;;;;;;;5.63;2.55;;;22.10;99.90;;;;;;10051368;28;20099;-69
2023/09/30 13:02:25;;;;;;;7.43;2.45;;;22.10;99.90;;;;;;10053507;28;20039;-69
2023/09/30 13:07:16;;;;;;;4.13;2.83;;;22.20;99.90;;;;;;10049093;28;20041;-69
2023/09/30 13:12:07;;;;;;;5.38;2.55;;;22.30;99.90;;;;;;10052931;28;20562;-68
2023/09/30 13:16:58;;;;;;;5.35;2.53;;;22.40;99.90;;;;;;10055680;28;20027;-68
2023/09/30 13:21:50;;;;;;;4.05;2.25;;;22.60;99.90;;;;;;10055538;28;20065;-68
2023/09/30 13:26:41;;;;;;;6.57;2.85;;;22.80;99.90;;;;;;10055450;28;20050;-69
2023/09/30 13:31:32;;;;;;;4.43;2.28;;;22.90;99.90;;;;;;10062718;28;20025;-68
2023/09/30 13:36:23;;;;;;;6.35;2.40;;;23.10;99.90;;;;;;10053625;28;20116;-69
2023/09/30 13:41:13;;;;;;;5.78;3.75;;;23.20;99.90;;;;;;10051323;28;20737;-67
2023/09/30 13:46:06;;;;;;;7.15;2.90;;;23.30;99.90;;;;;;10054503;28;20067;-69
2023/09/30 13:51:07;;;;;;;4.47;2.60;;;23.30;99.90;;;;;;10053043;28;20048;-69
2023/09/30 13:55:57;;;;;;;7.97;2.60;;;23.00;99.90;;;;;;10051665;28;20040;-70
2023/09/30 14:00:48;;;;;;;6.28;2.65;;;22.90;99.90;;;;;;10053541;28;20041;-69
2023/09/30 14:05:39;;;;;;;4.85;2.47;;;23.10;99.90;;;;;;10055790;28;20037;-70
2023/09/30 14:10:30;;;;;;;8.13;3.17;;;23.40;99.90;;;;;;10059974;28;20032;-73
2023/09/30 14:15:23;;;;;;;4.45;2.75;;;23.60;99.90;;;;;;10062424;28;20021;-73
2023/09/30 14:20:14;;;;;;;4.90;3.03;;;23.80;99.90;;;;;;10061152;28;20037;-71
2023/09/30 14:25:05;;;;;;;7.13;2.92;;;24.00;99.90;;;;;;10061674;28;20033;-69
2023/09/30 14:29:56;;;;;;;13.95;3.33;;;24.20;99.90;;;;;;10056497;28;20593;-68
2023/09/30 14:34:47;;;;;;;4.68;2.25;;;24.30;99.90;;;;;;10067488;28;20498;-73
2023/09/30 14:39:38;;;;;;;6.15;2.63;;;24.40;99.90;;;;;;10059518;28;20037;-69
2023/09/30 14:44:29;;;;;;;6.45;2.50;;;24.60;99.90;;;;;;10054732;28;20022;-70
2023/09/30 14:49:19;;;;;;;8.68;3.17;;;24.30;99.90;;;;;;10051764;28;20033;-70
2023/09/30 14:54:10;;;;;;;6.13;3.00;;;24.30;99.90;;;;;;10050539;28;20398;-68
2023/09/30 14:59:02;;;;;;;6.00;2.60;;;24.40;99.90;;;;;;10048019;28;20396;-68
2023/09/30 15:03:53;;;;;;;6.20;3.35;;;24.60;99.90;;;;;;10038625;28;20018;-69
2023/09/30 15:08:43;;;;;;;6.90;3.33;;;24.80;99.90;;;;;;10050382;28;20533;-69
2023/09/30 15:13:34;;;;;;;6.10;3.20;;;24.90;99.90;;;;;;10055582;28;20041;-72
2023/09/30 15:18:25;;;;;;;6.43;2.65;;;25.10;99.80;;;;;;10051358;28;20106;-67
2023/09/30 15:23:16;;;;;;;7.07;2.83;;;25.10;99.60;;;;;;10057473;28;20104;-69
2023/09/30 15:28:07;;;;;;;7.75;4.63;;;25.20;99.40;;;;;;10048358;28;20156;-68
2023/09/30 15:32:58;;;;;;;5.78;3.30;;;25.20;99.30;;;;;;10057954;28;20025;-69
2023/09/30 15:37:49;;;;;;;7.57;3.65;;;25.20;99.10;;;;;;10057077;28;20168;-70
2023/09/30 15:42:40;;;;;;;7.05;3.05;;;25.20;99.00;;;;;;10058430;28;20040;-68
2023/09/30 15:47:30;;;;;;;9.10;3.85;;;25.30;99.00;;;;;;10056769;28;20399;-69
2023/09/30 15:52:21;;;;;;;4.32;2.67;;;25.30;98.80;;;;;;10058618;28;20111;-69
2023/09/30 15:57:12;;;;;;;8.35;2.85;;;25.30;98.70;;;;;;10057876;28;20036;-69
2023/09/30 16:02:02;;;;;;;5.93;3.22;;;25.20;98.60;;;;;;10054949;28;20044;-69
2023/09/30 16:06:53;;;;;;;6.60;3.25;;;25.20;98.60;;;;;;10056802;28;20116;-70
2023/09/30 16:11:44;;;;;;;6.72;3.95;;;25.10;98.60;;;;;;10057877;28;20700;-71
2023/09/30 16:16:34;;;;;;;5.53;2.88;;;24.90;98.60;;;;;;10053784;28;21787;-68
2023/09/30 16:21:26;;;;;;;7.60;3.35;;;24.70;98.60;;;;;;10052082;28;20045;-69
2023/09/30 16:26:16;;;;;;;8.10;3.60;;;24.60;98.60;;;;;;10056854;28;20541;-69
2023/09/30 16:31:07;;;;;;;6.57;3.00;;;24.50;98.60;;;;;;10060824;28;20056;-69
2023/09/30 16:35:57;;;;;;;12.23;6.90;;;24.40;98.50;;;;;;10057763;28;20021;-70
2023/09/30 16:40:48;;;;;;;10.15;5.20;;;24.30;98.50;;;;;;10052404;28;20049;-70
2023/09/30 16:45:39;;;;;;;8.48;4.38;;;24.30;98.40;;;;;;10054422;28;20033;-72
2023/09/30 16:50:30;;;;;;;8.05;4.20;;;24.20;98.30;;;;;;10053635;28;20033;-71
2023/09/30 16:55:21;;;;;;;9.35;4.15;;;24.10;98.40;;;;;;10059410;28;20567;-69
2023/09/30 17:00:14;;;;;;;9.25;4.30;;;24.20;98.40;;;;;;10050342;28;20066;-71
2023/09/30 17:05:06;;;;;;;7.38;4.25;;;24.10;98.30;;;;;;10054326;28;20022;-70
2023/09/30 17:09:57;;;;;;;6.38;3.35;;;24.10;98.20;;;;;;10054367;28;20422;-70
2023/09/30 17:14:47;;;;;;;5.38;2.90;;;24.00;98.20;;;;;;10054998;28;20034;-69
2023/09/30 17:19:38;;;;;;;6.30;3.25;;;24.00;98.50;;;;;;10051852;28;20049;-69
2023/09/30 17:24:32;;;;;;;8.55;3.88;;;24.00;98.20;;;;;;10052935;28;20026;-70
2023/09/30 17:29:22;;;;;;;10.18;4.43;;;23.90;98.20;;;;;;10054530;28;20045;-69
2023/09/30 17:34:13;;;;;;;8.13;3.72;;;23.90;98.20;;;;;;10062899;28;20025;-71
2023/09/30 17:39:04;;;;;;;10.13;4.28;;;23.80;98.40;;;;;;10053825;28;20128;-69
2023/09/30 17:43:55;;;;;;;6.07;3.88;;;23.80;98.20;;;;;;10062992;28;20091;-69
2023/09/30 17:48:47;;;;;;;8.82;3.92;;;23.70;98.30;;;;;;10063770;28;20531;-70
2023/09/30 17:53:38;;;;;;;9.45;3.97;;;23.60;98.40;;;;;;10064446;28;20056;-71
2023/09/30 17:58:29;;;;;;;12.57;5.05;;;23.70;98.30;;;;;;10061823;28;20155;-71
2023/09/30 18:03:20;;;;;;;8.82;3.92;;;23.50;98.40;;;;;;10062625;28;20526;-70
2023/09/30 18:08:12;;;;;;;10.00;5.25;;;23.50;98.40;;;;;;10059435;28;20017;-71
2023/09/30 18:13:03;;;;;;;10.82;5.55;;;23.50;98.40;;;;;;10061876;28;20104;-69
2023/09/30 18:17:54;;;;;;;10.80;5.85;;;23.50;98.40;;;;;;10059825;28;20628;-70
2023/09/30 18:22:44;;;;;;;10.32;4.85;;;23.50;98.40;;;;;;10056575;28;20446;-70
2023/09/30 18:27:39;;;;;;;12.63;6.22;;;23.50;98.40;;;;;;10061882;28;20042;-70
2023/09/30 18:32:29;;;;;;;13.37;6.50;;;23.60;98.40;;;;;;10059413;28;20091;-72
2023/09/30 18:37:20;;;;;;;12.02;6.38;;;23.40;98.50;;;;;;10058745;28;20340;-70
2023/09/30 18:42:10;;;;;;;15.10;6.55;;;23.30;98.60;;;;;;10061263;28;20041;-69
2023/09/30 18:47:02;;;;;;;13.00;6.00;;;23.30;98.70;;;;;;10060598;28;20029;-68
2023/09/30 18:51:52;;;;;;;15.65;6.30;;;23.20;99.00;;;;;;10059798;28;20521;-68
2023/09/30 18:56:43;;;;;;;8.70;6.53;;;23.10;98.90;;;;;;10060482;28;20049;-69
2023/09/30 19:01:33;;;;;;;13.13;7.55;;;23.10;99.00;;;;;;10059857;28;20041;-69
2023/09/30 19:06:24;;;;;;;13.35;7.25;;;23.10;98.90;;;;;;10059567;28;20056;-69
2023/09/30 19:11:17;;;;;;;16.02;7.22;;;23.00;99.00;;;;;;10059193;28;20044;-70
2023/09/30 19:16:08;;;;;;;14.80;6.25;;;22.90;99.20;;;;;;10059217;28;20025;-68
2023/09/30 19:20:58;;;;;;;14.75;6.70;;;22.80;99.30;;;;;;10057579;28;20041;-69
2023/09/30 19:25:49;;;;;;;12.80;6.38;;;22.80;99.40;;;;;;10058535;28;20741;-71
2023/09/30 19:30:43;;;;;;;13.00;7.30;;;22.80;99.40;;;;;;10059432;28;20057;-71
2023/09/30 19:35:34;;;;;;;15.45;7.45;;;22.80;99.50;;;;;;10061912;28;20023;-69
2023/09/30 19:40:24;;;;;;;14.50;7.28;;;22.70;99.70;;;;;;10057239;28;20037;-70
2023/09/30 19:45:15;;;;;;;18.02;7.82;;;22.80;99.60;;;;;;10054347;28;20116;-70
2023/09/30 19:50:07;;;;;;;19.15;7.72;;;22.80;99.50;;;;;;10056128;28;20037;-68
2023/09/30 19:54:57;;;;;;;19.23;8.27;;;22.70;99.50;;;;;;10055073;28;20504;-70
2023/09/30 19:59:48;;;;;;;14.55;6.25;;;22.60;99.70;;;;;;10044550;28;20120;-70
2023/09/30 20:04:39;;;;;;;9.55;5.57;;;22.50;99.80;;;;;;10046959;28;20161;-75
2023/09/30 20:09:31;;;;;;;16.40;6.80;;;22.40;99.90;;;;;;10050600;28;20112;-72
2023/09/30 20:14:22;;;;;;;11.30;6.05;;;22.40;99.80;;;;;;10054805;28;20057;-70
2023/09/30 20:19:12;;;;;;;14.18;6.72;;;22.40;99.90;;;;;;10055634;28;20037;-71
2023/09/30 20:24:04;;;;;;;12.50;6.45;;;22.30;99.90;;;;;;10049106;28;20029;-74
2023/09/30 20:28:55;;;;;;;14.27;6.90;;;22.30;99.90;;;;;;10040544;28;20109;-72
2023/09/30 20:33:48;;;;;;;11.48;7.07;;;22.10;99.90;;;;;;10056131;28;20060;-70
2023/09/30 20:38:38;;;;;;;11.00;5.63;;;22.00;99.90;;;;;;10053278;28;20096;-71
2023/09/30 20:43:30;;;;;;;11.13;6.57;;;21.80;99.90;;;;;;10048239;28;20592;-69
2023/09/30 20:48:20;;;;;;;11.98;5.70;;;21.90;99.90;;;;;;10044753;28;20053;-73
2023/09/30 20:53:12;;;;;;;12.57;6.20;;;21.80;99.90;;;;;;10049131;28;20437;-72
2023/09/30 20:58:03;;;;;;;14.60;7.00;;;21.80;99.90;;;;;;10037955;28;20364;-72
2023/09/30 21:02:54;;;;;;;16.50;7.38;;;21.70;99.90;;;;;;10026173;28;20034;-72
2023/09/30 21:07:45;;;;;;;18.17;8.50;;;21.80;99.90;;;;;;10051884;28;20415;-70
2023/09/30 21:12:35;;;;;;;18.08;9.15;;;21.70;99.90;;;;;;10048254;28;20040;-70
2023/09/30 21:17:28;;;;;;;20.38;10.68;;;21.70;99.90;;;;;;10051736;28;20124;-69
2023/09/30 21:22:19;;;;;;;11.50;6.50;;;21.60;99.90;;;;;;10053129;28;20037;-71
2023/09/30 21:27:09;;;;;;;9.20;4.75;;;21.60;99.90;;;;;;10055868;28;20537;-70
2023/09/30 21:32:01;;;;;;;10.75;4.82;;;21.50;99.90;;;;;;10066949;28;20028;-69
2023/09/30 21:36:52;;;;;;;11.05;5.05;;;21.40;99.90;;;;;;10064328;28;20347;-69
2023/09/30 21:41:42;;;;;;;10.90;5.43;;;21.30;99.90;;;;;;10064943;28;20033;-70
2023/09/30 21:46:33;;;;;;;9.60;5.05;;;21.30;99.90;;;;;;10066017;28;20104;-68
2023/09/30 21:51:24;;;;;;;12.40;4.65;;;21.30;99.90;;;;;;10062692;28;20048;-73
2023/09/30 21:56:14;;;;;;;9.55;4.82;;;21.30;99.90;;;;;;10062028;28;20025;-71
2023/09/30 22:01:06;;;;;;;8.15;4.10;;;21.30;99.90;;;;;;10061815;28;20115;-69
2023/09/30 22:05:58;;;;;;;11.18;3.83;;;21.40;99.90;;;;;;10062715;28;20398;-71
2023/09/30 22:10:50;;;;;;;10.52;4.63;;;21.20;99.90;;;;;;10058751;28;20604;-70
2023/09/30 22:15:44;;;;;;;7.38;4.32;;;21.10;99.90;;;;;;10062076;28;20112;-68
2023/09/30 22:20:35;;;;;;;6.60;4.00;;;21.20;99.90;;;;;;10062055;28;20140;-70
2023/09/30 22:25:26;;;;;;;10.75;3.72;;;21.10;99.90;;;;;;10061301;28;20115;-70
2023/09/30 22:30:17;;;;;;;7.35;4.25;;;20.90;99.90;;;;;;10063837;28;20052;-68
2023/09/30 22:35:07;;;;;;;9.57;4.45;;;20.80;99.90;;;;;;10059699;28;20045;-68
2023/09/30 22:39:58;;;;;;;7.40;4.00;;;20.80;99.90;;;;;;10059131;28;20041;-68
2023/09/30 22:44:49;;;;;;;9.23;4.07;;;20.80;99.90;;;;;;10066892;28;20373;-68
2023/09/30 22:49:39;;;;;;;8.32;4.32;;;20.70;99.90;;;;;;10060593;28;20117;-68
2023/09/30 22:54:30;;;;;;;6.88;4.20;;;20.60;99.90;;;;;;10060273;28;20032;-68
2023/09/30 22:59:22;;;;;;;7.78;3.67;;;20.60;99.90;;;;;;10061876;28;20041;-70
2023/09/30 23:04:12;;;;;;;8.02;4.00;;;20.50;99.90;;;;;;10060738;28;20582;-72
2023/09/30 23:09:07;;;;;;;8.05;3.70;;;20.50;99.90;;;;;;10055651;28;20108;-75
2023/09/30 23:13:57;;;;;;;10.37;4.97;;;20.60;99.90;;;;;;10057282;28;20534;-68
2023/09/30 23:18:48;;;;;;;8.68;4.85;;;20.50;99.90;;;;;;10056403;28;20033;-70
2023/09/30 23:23:40;;;;;;;12.18;5.80;;;20.40;99.90;;;;;;10057324;28;20033;-68
2023/09/30 23:28:34;;;;;;;10.95;5.80;;;20.50;99.90;;;;;;10059769;28;20068;-69
2023/09/30 23:33:24;;;;;;;9.63;5.90;;;20.40;99.90;;;;;;10058283;28;20044;-70
2023/09/30 23:38:15;;;;;;;13.57;6.97;;;20.30;99.90;;;;;;10059768;28;20042;-69
2023/09/30 23:43:07;;;;;;;10.57;6.43;;;20.30;99.90;;;;;;10059575;28;20108;-68
2023/09/30 23:47:58;;;;;;;13.35;6.93;;;20.20;99.90;;;;;;10059563;28;20108;-67
2023/09/30 23:52:51;;;;;;;10.85;5.22;;;20.10;99.90;;;;;;10057202;28;20179;-68
2023/09/30 23:57:44;;;;;;;14.82;6.63;;;20.00;99.90;;;;;;10058539;28;20028;-69
